Time;durP1;ratioP1;P1;durP2;ratioP2;P2;SDS_P1;SDS_P2;PMS_P1;PMS_P2;Temp;Humidity;BMP_temperature;BMP_pressure;BME280_temperature;BME280_humidity;BME280_pressure;Samples;Min_cycle;Max_cycle;Signal;HPM_P1;HPM_P2
2022/12/01 00:02:21;;;;;;;;;;;4.90;77.10;;;;;;5041834;28;93290;-39
2022/12/01 00:04:47;;;;;;;;;;;4.90;77.20;;;;;;5041368;28;93127;-39
2022/12/01 00:07:12;;;;;;;;;;;4.90;77.20;;;;;;5043834;27;93973;-39
2022/12/01 00:12:22;;;;;;;;;;;4.90;77.20;;;;;;5041925;28;92118;-39
2022/12/01 00:14:53;;;;;;;;;;;4.80;77.20;;;;;;5041599;28;92319;-39
2022/12/01 00:17:19;;;;;;;;;;;4.80;77.10;;;;;;5041306;28;93516;-39
2022/12/01 00:19:45;;;;;;;;;;;4.80;77.10;;;;;;5041656;28;92122;-39
2022/12/01 00:22:10;;;;;;;;;;;4.80;77.10;;;;;;5041597;28;92499;-39
2022/12/01 00:24:36;;;;;;;;;;;4.90;77.20;;;;;;5040138;28;95487;-39
2022/12/01 00:27:01;;;;;;;;;;;4.90;77.20;;;;;;5041424;28;92192;-39
2022/12/01 00:29:27;;;;;;;;;;;4.90;77.20;;;;;;5044017;28;92579;-39
2022/12/01 00:31:52;;;;;;;;;;;4.90;77.20;;;;;;5041085;28;92213;-39
2022/12/01 00:34:22;;;;;;;;;;;4.90;77.20;;;;;;5041432;28;92456;-39
2022/12/01 00:36:47;;;;;;;;;;;4.80;77.10;;;;;;5040870;28;93006;-39
2022/12/01 00:39:13;;;;;;;;;;;4.80;77.20;;;;;;5041359;28;92093;-39
2022/12/01 00:41:38;;;;;;;;;;;4.80;77.10;;;;;;5041524;28;93689;-39
2022/12/01 00:44:04;;;;;;;;;;;4.80;77.10;;;;;;5040753;28;93163;-39
2022/12/01 00:46:30;;;;;;;;;;;4.80;77.20;;;;;;5040615;28;92357;-39
2022/12/01 00:48:55;;;;;;;;;;;4.80;77.20;;;;;;5040531;27;93563;-39
2022/12/01 00:51:20;;;;;;;;;;;4.80;77.70;;;;;;5043626;28;93041;-39
2022/12/01 00:53:46;;;;;;;;;;;4.80;77.20;;;;;;5041198;28;92093;-39
2022/12/01 00:56:11;;;;;;;;;;;4.80;77.20;;;;;;5040499;28;92880;-39
2022/12/01 00:58:37;;;;;;;;;;;4.80;77.10;;;;;;5040898;28;92179;-39
2022/12/01 01:01:02;;;;;;;;;;;4.80;77.10;;;;;;5040687;28;92522;-39
2022/12/01 01:03:29;;;;;;;;;;;4.80;77.10;;;;;;5040402;28;93103;-39
2022/12/01 01:05:55;;;;;;;;;;;4.80;77.20;;;;;;5041061;28;91364;-39
2022/12/01 01:08:20;;;;;;;;;;;4.80;77.10;;;;;;5040819;28;92046;-39
2022/12/01 01:10:47;;;;;;;;;;;4.80;77.10;;;;;;5040351;28;93084;-39
2022/12/01 01:13:13;;;;;;;;;;;4.80;77.10;;;;;;5043249;28;93074;-39
2022/12/01 01:15:38;;;;;;;;;;;4.80;77.70;;;;;;5039960;28;92617;-39
2022/12/01 01:18:04;;;;;;;;;;;4.80;77.10;;;;;;5040727;28;92165;-39
2022/12/01 01:20:30;;;;;;;;;;;4.80;77.10;;;;;;5040482;27;93677;-39
2022/12/01 01:22:56;;;;;;;;;;;4.80;77.10;;;;;;5040060;28;93001;-39
2022/12/01 01:25:21;;;;;;;;;;;4.80;77.10;;;;;;5040857;28;92134;-39
2022/12/01 01:27:47;;;;;;;;;;;4.80;77.10;;;;;;5040369;27;92716;-39
2022/12/01 01:30:12;;;;;;;;;;;4.80;77.10;;;;;;5040562;28;91492;-39
2022/12/01 01:32:38;;;;;;;;;;;4.80;77.10;;;;;;5043377;28;92079;-39
2022/12/01 01:35:04;;;;;;;;;;;4.80;77.10;;;;;;5039975;28;93209;-39
2022/12/01 01:37:29;;;;;;;;;;;4.80;77.10;;;;;;5039913;28;93156;-39
2022/12/01 01:39:55;;;;;;;;;;;4.80;77.20;;;;;;5040172;28;93305;-39
2022/12/01 01:42:20;;;;;;;;;;;4.80;77.10;;;;;;5039813;28;93534;-39
2022/12/01 01:44:53;;;;;;;;;;;4.80;76.90;;;;;;5039639;28;92158;-39
2022/12/01 01:47:25;;;;;;;;;;;4.80;77.00;;;;;;5040173;28;92630;-39
2022/12/01 01:49:51;;;;;;;;;;;4.80;77.10;;;;;;5039377;28;94654;-39
2022/12/01 01:52:17;;;;;;;;;;;4.80;77.10;;;;;;5040284;28;92048;-39
2022/12/01 01:54:44;;;;;;;;;;;4.80;77.10;;;;;;5042916;27;93909;-39
2022/12/01 01:57:11;;;;;;;;;;;4.70;77.10;;;;;;5039779;28;92722;-39
2022/12/01 01:59:39;;;;;;;;;;;4.70;77.10;;;;;;5039417;27;92288;-39
2022/12/01 02:02:07;;;;;;;;;;;4.70;77.10;;;;;;5038408;28;95524;-39
2022/12/01 02:04:34;;;;;;;;;;;4.70;77.10;;;;;;5039948;28;92709;-39
2022/12/01 02:06:59;;;;;;;;;;;4.70;77.10;;;;;;5039792;27;92421;-39
2022/12/01 02:09:25;;;;;;;;;;;4.80;77.10;;;;;;5039500;28;93311;-39
2022/12/01 02:11:57;;;;;;;;;;;4.80;77.20;;;;;;5039774;28;92158;-39
2022/12/01 02:14:38;;;;;;;;;;;4.80;77.10;;;;;;5039994;28;92452;-39
2022/12/01 02:17:03;;;;;;;;;;;4.70;77.10;;;;;;5042392;28;93117;-39
2022/12/01 02:19:47;;;;;;;;;;;4.70;77.10;;;;;;5040419;27;92302;-39
2022/12/01 02:22:27;;;;;;;;;;;4.70;77.10;;;;;;5039140;27;93169;-39
2022/12/01 02:25:11;;;;;;;;;;;4.70;77.10;;;;;;5039358;28;92157;-39
2022/12/01 02:27:52;;;;;;;;;;;4.80;77.10;;;;;;5039250;27;93089;-39
2022/12/01 02:30:56;;;;;;;;;;;4.80;77.00;;;;;;5038633;28;93180;-39
2022/12/01 02:33:24;;;;;;;;;;;4.70;77.10;;;;;;4996669;28;92063;-39
2022/12/01 02:36:01;;;;;;;;;;;4.70;77.10;;;;;;4997042;28;92392;-39
2022/12/01 02:38:29;;;;;;;;;;;4.70;77.10;;;;;;5019672;28;94298;-39
2022/12/01 02:41:00;;;;;;;;;;;4.70;77.00;;;;;;5042591;28;92147;-39
2022/12/01 02:43:44;;;;;;;;;;;4.80;77.00;;;;;;5038937;28;92272;-39
2022/12/01 02:46:15;;;;;;;;;;;4.70;76.90;;;;;;5039461;27;91402;-39
2022/12/01 02:48:42;;;;;;;;;;;4.80;77.00;;;;;;5039461;28;92006;-39
2022/12/01 02:51:16;;;;;;;;;;;4.70;77.00;;;;;;5038873;28;93373;-39
2022/12/01 02:53:42;;;;;;;;;;;4.80;77.00;;;;;;5038628;28;92971;-39
2022/12/01 02:56:10;;;;;;;;;;;4.80;77.00;;;;;;5038922;27;92849;-39
2022/12/01 02:58:35;;;;;;;;;;;4.80;76.90;;;;;;5038732;28;93097;-39
2022/12/01 03:01:10;;;;;;;;;;;4.70;77.00;;;;;;5039443;28;92191;-39
2022/12/01 03:03:41;;;;;;;;;;;4.70;76.90;;;;;;5041791;28;92515;-39
2022/12/01 03:06:12;;;;;;;;;;;4.70;76.90;;;;;;5038853;28;92157;-39
2022/12/01 03:09:01;;;;;;;;;;;4.70;76.90;;;;;;5039103;27;92647;-39
2022/12/01 03:11:41;;;;;;;;;;;4.70;76.90;;;;;;5038848;27;91980;-39
2022/12/01 03:14:28;;;;;;;;;;;4.80;76.90;;;;;;5039080;28;92105;-39
2022/12/01 03:16:55;;;;;;;;;;;4.80;76.90;;;;;;5038759;27;92028;-39
2022/12/01 03:19:27;;;;;;;;;;;4.70;76.80;;;;;;5037849;28;93465;-39
2022/12/01 03:22:11;;;;;;;;;;;4.80;76.90;;;;;;5038952;28;92167;-39
2022/12/01 03:24:38;;;;;;;;;;;4.70;77.00;;;;;;5039008;27;92492;-39
2022/12/01 03:27:04;;;;;;;;;;;4.70;76.90;;;;;;5041376;28;93179;-39
2022/12/01 03:29:32;;;;;;;;;;;4.70;77.00;;;;;;5038253;27;93812;-39
2022/12/01 03:32:16;;;;;;;;;;;4.70;77.10;;;;;;5038114;28;94510;-39
2022/12/01 03:34:42;;;;;;;;;;;4.70;77.00;;;;;;5038730;28;92143;-39
2022/12/01 03:37:16;;;;;;;;;;;4.70;77.00;;;;;;5039120;28;92350;-39
2022/12/01 03:39:44;;;;;;;;;;;4.70;76.90;;;;;;5037921;28;94574;-39
2022/12/01 03:42:14;;;;;;;;;;;4.70;76.80;;;;;;5039212;27;91940;-39
2022/12/01 03:44:57;;;;;;;;;;;4.70;76.80;;;;;;5040863;27;93129;-39
2022/12/01 03:47:23;;;;;;;;;;;4.70;76.80;;;;;;5044594;28;93193;-39
2022/12/01 03:49:50;;;;;;;;;;;4.70;76.80;;;;;;5042172;27;92346;-39
2022/12/01 03:52:27;;;;;;;;;;;4.70;76.80;;;;;;5041454;28;93041;-39
2022/12/01 03:55:00;;;;;;;;;;;4.70;76.80;;;;;;5041774;28;92102;-39
2022/12/01 03:57:30;;;;;;;;;;;4.70;76.90;;;;;;5041806;28;93738;-39
2022/12/01 03:59:56;;;;;;;;;;;4.70;77.00;;;;;;5041601;28;93413;-39
2022/12/01 04:02:26;;;;;;;;;;;4.70;77.00;;;;;;5042314;28;91407;-39
2022/12/01 04:04:52;;;;;;;;;;;4.70;76.90;;;;;;5041776;27;92796;-39
2022/12/01 04:07:17;;;;;;;;;;;4.70;76.80;;;;;;5040885;28;93159;-39
2022/12/01 04:09:43;;;;;;;;;;;4.70;76.70;;;;;;5044374;28;93039;-39
2022/12/01 04:12:28;;;;;;;;;;;4.70;77.00;;;;;;5040811;28;94884;-39
2022/12/01 04:14:58;;;;;;;;;;;4.70;77.00;;;;;;5041730;28;92107;-39
2022/12/01 04:17:24;;;;;;;;;;;4.70;76.80;;;;;;5041426;27;92070;-39
2022/12/01 04:19:50;;;;;;;;;;;4.70;76.80;;;;;;5041002;28;91874;-39
2022/12/01 04:22:15;;;;;;;;;;;4.70;76.80;;;;;;5041507;28;92088;-39
2022/12/01 04:24:41;;;;;;;;;;;4.70;76.80;;;;;;5041887;28;92315;-39
2022/12/01 04:27:06;;;;;;;;;;;4.70;76.90;;;;;;5041689;28;92661;-39
2022/12/01 04:29:32;;;;;;;;;;;4.70;76.90;;;;;;5041299;28;92174;-39
2022/12/01 04:31:57;;;;;;;;;;;4.70;77.00;;;;;;5043992;28;92447;-39
2022/12/01 04:34:23;;;;;;;;;;;4.70;76.90;;;;;;5040326;28;93116;-39
2022/12/01 04:36:48;;;;;;;;;;;4.70;76.90;;;;;;5041458;27;93355;-39
2022/12/01 04:39:14;;;;;;;;;;;4.70;76.90;;;;;;5040612;28;94334;-39
2022/12/01 04:41:39;;;;;;;;;;;4.70;76.90;;;;;;5041383;28;92177;-39
2022/12/01 04:44:05;;;;;;;;;;;4.70;76.80;;;;;;5041313;28;92360;-39
2022/12/01 04:46:30;;;;;;;;;;;4.70;76.80;;;;;;5040253;28;92267;-40
2022/12/01 04:48:56;;;;;;;;;;;4.60;76.80;;;;;;5041003;28;92208;-39
2022/12/01 04:51:21;;;;;;;;;;;4.70;76.80;;;;;;5041659;28;92441;-39
2022/12/01 04:53:47;;;;;;;;;;;4.70;77.00;;;;;;5043480;27;93143;-39
2022/12/01 04:56:13;;;;;;;;;;;4.70;76.80;;;;;;5040948;27;92173;-39
2022/12/01 04:58:38;;;;;;;;;;;4.70;76.80;;;;;;5039765;28;93691;-39
2022/12/01 05:01:05;;;;;;;;;;;4.60;76.80;;;;;;5040649;28;92220;-39
2022/12/01 05:03:31;;;;;;;;;;;4.60;77.00;;;;;;5040543;27;93847;-39
2022/12/01 05:06:04;;;;;;;;;;;4.60;77.00;;;;;;5040170;28;94583;-39
2022/12/01 05:08:30;;;;;;;;;;;4.60;76.80;;;;;;5040381;28;92463;-39
2022/12/01 05:10:55;;;;;;;;;;;4.60;77.00;;;;;;5040939;28;92187;-39
2022/12/01 05:13:21;;;;;;;;;;;4.70;77.00;;;;;;5040301;28;93216;-39
2022/12/01 05:15:46;;;;;;;;;;;4.60;77.00;;;;;;5044204;28;91405;-39
2022/12/01 05:18:12;;;;;;;;;;;4.60;77.00;;;;;;5039930;28;93407;-39
2022/12/01 05:20:56;;;;;;;;;;;4.60;77.00;;;;;;5040688;28;92180;-39
2022/12/01 05:23:21;;;;;;;;;;;4.60;76.90;;;;;;5040326;27;93071;-40
2022/12/01 05:25:47;;;;;;;;;;;4.60;77.00;;;;;;5040005;28;92136;-39
2022/12/01 05:28:12;;;;;;;;;;;4.60;77.00;;;;;;5040637;28;92127;-39
2022/12/01 05:30:38;;;;;;;;;;;4.60;77.00;;;;;;5040260;28;92475;-39
2022/12/01 05:33:03;;;;;;;;;;;4.60;77.10;;;;;;5039822;28;94570;-39
2022/12/01 05:35:29;;;;;;;;;;;4.60;77.00;;;;;;5040506;28;92291;-39
2022/12/01 05:37:54;;;;;;;;;;;4.60;77.00;;;;;;5043068;28;92479;-39
2022/12/01 05:40:20;;;;;;;;;;;4.60;77.00;;;;;;5040912;28;91526;-39
2022/12/01 05:42:45;;;;;;;;;;;4.60;77.00;;;;;;5040473;28;92106;-39
2022/12/01 05:45:11;;;;;;;;;;;4.60;77.00;;;;;;5039554;28;93211;-39
2022/12/01 05:47:36;;;;;;;;;;;4.60;76.90;;;;;;5039478;28;93082;-39
2022/12/01 05:50:02;;;;;;;;;;;4.70;76.80;;;;;;5040275;28;93678;-39
2022/12/01 05:52:28;;;;;;;;;;;4.60;76.90;;;;;;5039577;28;93174;-39
2022/12/01 05:54:53;;;;;;;;;;;4.60;77.00;;;;;;5040025;28;92152;-39
2022/12/01 05:57:18;;;;;;;;;;;4.60;77.00;;;;;;5042587;28;92340;-39
2022/12/01 05:59:44;;;;;;;;;;;4.60;77.00;;;;;;5040279;28;92183;-39
2022/12/01 06:02:09;;;;;;;;;;;4.60;77.00;;;;;;5040108;28;92576;-39
2022/12/01 06:04:35;;;;;;;;;;;4.60;77.00;;;;;;5039281;28;92597;-39
2022/12/01 06:07:00;;;;;;;;;;;4.60;77.00;;;;;;5039164;28;92168;-39
2022/12/01 06:09:26;;;;;;;;;;;4.60;77.00;;;;;;5039963;28;92556;-39
2022/12/01 06:11:51;;;;;;;;;;;4.60;77.00;;;;;;5038683;28;94309;-39
2022/12/01 06:14:17;;;;;;;;;;;4.60;76.80;;;;;;5040146;28;92216;-39
2022/12/01 06:16:42;;;;;;;;;;;4.60;77.00;;;;;;5039464;28;92519;-39
2022/12/01 06:19:08;;;;;;;;;;;4.50;77.10;;;;;;5042537;28;93071;-39
2022/12/01 06:21:33;;;;;;;;;;;4.50;77.20;;;;;;5039700;28;92701;-39
2022/12/01 06:23:59;;;;;;;;;;;4.60;77.20;;;;;;5039068;28;93047;-39
2022/12/01 06:26:24;;;;;;;;;;;4.60;77.20;;;;;;5039684;28;92073;-39
2022/12/01 06:28:50;;;;;;;;;;;4.60;77.10;;;;;;5040129;28;92382;-39
2022/12/01 06:31:15;;;;;;;;;;;4.60;77.20;;;;;;5039227;28;93246;-39
2022/12/01 06:33:41;;;;;;;;;;;4.50;77.10;;;;;;5039384;28;92237;-39
2022/12/01 06:36:06;;;;;;;;;;;4.60;77.10;;;;;;5038896;28;93530;-39
2022/12/01 06:38:33;;;;;;;;;;;4.60;77.00;;;;;;5039016;28;93049;-39
2022/12/01 06:40:59;;;;;;;;;;;4.50;77.00;;;;;;5042513;28;92128;-39
2022/12/01 06:43:24;;;;;;;;;;;4.50;77.20;;;;;;5038990;28;93072;-39
2022/12/01 06:45:50;;;;;;;;;;;4.50;77.00;;;;;;5038696;28;92298;-39
2022/12/01 06:48:15;;;;;;;;;;;4.60;77.10;;;;;;5039388;28;92307;-39
2022/12/01 06:50:41;;;;;;;;;;;4.60;77.00;;;;;;5038933;28;93138;-39
2022/12/01 06:53:07;;;;;;;;;;;4.60;77.00;;;;;;5039467;28;91484;-39
2022/12/01 06:55:32;;;;;;;;;;;4.60;77.00;;;;;;5039102;27;93289;-39
2022/12/01 06:57:58;;;;;;;;;;;4.60;77.00;;;;;;5038389;28;94722;-39
2022/12/01 07:00:24;;;;;;;;;;;4.50;77.20;;;;;;5038365;28;92995;-39
2022/12/01 07:02:49;;;;;;;;;;;4.50;77.10;;;;;;5041817;27;93345;-39
2022/12/01 07:05:15;;;;;;;;;;;4.60;77.00;;;;;;5039180;28;92094;-39
2022/12/01 07:07:40;;;;;;;;;;;4.60;77.00;;;;;;5039153;28;92153;-39
2022/12/01 07:10:07;;;;;;;;;;;4.50;77.00;;;;;;5038616;28;93048;-39
2022/12/01 07:12:32;;;;;;;;;;;4.50;77.30;;;;;;5038790;28;92171;-39
2022/12/01 07:14:58;;;;;;;;;;;4.50;77.10;;;;;;5039050;28;92399;-40
2022/12/01 07:17:23;;;;;;;;;;;4.50;77.20;;;;;;5040860;27;93545;-39
2022/12/01 07:19:49;;;;;;;;;;;4.50;77.00;;;;;;5042307;28;92125;-39
2022/12/01 07:22:14;;;;;;;;;;;4.50;77.20;;;;;;5042487;28;92403;-39
2022/12/01 07:24:40;;;;;;;;;;;4.60;77.00;;;;;;5044306;28;93958;-39
2022/12/01 07:27:06;;;;;;;;;;;4.60;77.00;;;;;;5042561;27;93254;-39
2022/12/01 07:29:31;;;;;;;;;;;4.60;77.00;;;;;;5041791;28;92776;-39
2022/12/01 07:31:56;;;;;;;;;;;4.50;77.00;;;;;;5042521;28;92133;-39
2022/12/01 07:34:22;;;;;;;;;;;4.50;77.20;;;;;;5042334;28;92755;-39
2022/12/01 07:36:47;;;;;;;;;;;4.50;77.10;;;;;;5041643;28;92730;-39
2022/12/01 07:39:13;;;;;;;;;;;4.50;77.20;;;;;;5042429;28;93452;-39
2022/12/01 07:41:38;;;;;;;;;;;4.50;77.00;;;;;;5042815;28;91518;-39
2022/12/01 07:44:04;;;;;;;;;;;4.60;77.00;;;;;;5041534;28;93163;-39
2022/12/01 07:46:29;;;;;;;;;;;4.60;77.00;;;;;;5044885;28;91961;-39
2022/12/01 07:48:55;;;;;;;;;;;4.60;77.00;;;;;;5040751;28;93173;-39
2022/12/01 07:51:22;;;;;;;;;;;4.50;77.00;;;;;;5042272;28;92211;-39
2022/12/01 07:53:48;;;;;;;;;;;4.50;77.30;;;;;;5042092;28;92919;-39
2022/12/01 07:56:14;;;;;;;;;;;4.60;77.20;;;;;;5041419;28;93188;-39
2022/12/01 07:58:41;;;;;;;;;;;4.50;77.00;;;;;;5041734;28;92140;-39
2022/12/01 08:01:11;;;;;;;;;;;4.50;78.00;;;;;;5041998;28;92073;-39
2022/12/01 08:03:37;;;;;;;;;;;4.50;77.30;;;;;;5041395;28;93033;-39
2022/12/01 08:06:03;;;;;;;;;;;4.50;77.00;;;;;;5045520;28;91390;-39
2022/12/01 08:08:29;;;;;;;;;;;4.50;77.30;;;;;;5041224;28;93184;-39
2022/12/01 08:10:58;;;;;;;;;;;4.50;77.50;;;;;;5041694;28;92514;-39
2022/12/01 08:13:23;;;;;;;;;;;4.50;77.10;;;;;;5041079;28;93055;-39
2022/12/01 08:15:49;;;;;;;;;;;4.60;77.00;;;;;;5041065;28;93269;-39
2022/12/01 08:18:14;;;;;;;;;;;4.50;77.00;;;;;;5041499;28;92165;-39
2022/12/01 08:20:40;;;;;;;;;;;4.40;77.20;;;;;;5041757;28;92476;-39
2022/12/01 08:23:07;;;;;;;;;;;4.40;77.50;;;;;;5041211;28;93403;-39
2022/12/01 08:25:32;;;;;;;;;;;4.40;77.50;;;;;;5041399;28;92311;-39
2022/12/01 08:27:58;;;;;;;;;;;4.40;77.60;;;;;;5043492;27;92618;-39
2022/12/01 08:30:24;;;;;;;;;;;4.50;77.60;;;;;;5042007;28;91454;-39
2022/12/01 08:32:52;;;;;;;;;;;4.60;77.20;;;;;;5041348;28;92061;-39
2022/12/01 08:35:18;;;;;;;;;;;4.50;77.30;;;;;;5040845;28;92955;-39
2022/12/01 08:37:43;;;;;;;;;;;4.40;77.30;;;;;;5040841;28;93095;-39
2022/12/01 08:40:09;;;;;;;;;;;4.40;77.50;;;;;;5041420;27;93246;-39
2022/12/01 08:42:34;;;;;;;;;;;4.50;77.40;;;;;;5040740;28;93003;-39
2022/12/01 08:45:19;;;;;;;;;;;4.40;77.30;;;;;;5040596;28;92254;-39
2022/12/01 08:47:46;;;;;;;;;;;4.50;77.40;;;;;;5041411;28;92497;-39
2022/12/01 08:50:11;;;;;;;;;;;4.50;77.30;;;;;;5043760;28;92995;-39
2022/12/01 08:52:37;;;;;;;;;;;4.50;77.40;;;;;;5041073;27;93788;-39
2022/12/01 08:55:03;;;;;;;;;;;4.40;77.50;;;;;;5040614;28;93699;-39
2022/12/01 08:57:29;;;;;;;;;;;4.40;77.40;;;;;;5040856;28;92175;-39
2022/12/01 08:59:54;;;;;;;;;;;4.40;77.40;;;;;;5040923;28;92379;-39
2022/12/01 09:02:23;;;;;;;;;;;4.40;77.50;;;;;;5039849;28;93918;-39
2022/12/01 09:04:49;;;;;;;;;;;4.40;77.60;;;;;;5040923;28;93575;-39
2022/12/01 09:07:15;;;;;;;;;;;4.40;77.50;;;;;;5040790;28;92487;-39
2022/12/01 09:09:41;;;;;;;;;;;4.40;77.50;;;;;;5040218;28;94761;-39
2022/12/01 09:12:07;;;;;;;;;;;4.50;77.40;;;;;;5043844;28;92137;-39
2022/12/01 09:14:38;;;;;;;;;;;4.50;77.10;;;;;;5039759;28;94510;-39
2022/12/01 09:17:03;;;;;;;;;;;4.50;77.20;;;;;;5040640;28;92207;-39
2022/12/01 09:19:29;;;;;;;;;;;4.50;77.40;;;;;;5041246;28;91636;-39
2022/12/01 09:21:55;;;;;;;;;;;4.50;77.40;;;;;;5040256;28;93091;-39
2022/12/01 09:24:20;;;;;;;;;;;4.50;77.20;;;;;;5040608;28;92177;-39
2022/12/01 09:26:46;;;;;;;;;;;4.40;77.50;;;;;;5039699;27;93809;-39
2022/12/01 09:29:12;;;;;;;;;;;4.40;77.50;;;;;;5039988;28;93162;-39
2022/12/01 09:31:38;;;;;;;;;;;4.40;77.60;;;;;;5040561;28;92157;-39
2022/12/01 09:34:05;;;;;;;;;;;4.50;77.70;;;;;;5043054;27;92319;-39
2022/12/01 09:36:31;;;;;;;;;;;4.50;77.30;;;;;;5040445;28;92120;-39
2022/12/01 09:38:57;;;;;;;;;;;4.40;77.40;;;;;;5040328;27;92358;-39
2022/12/01 09:41:27;;;;;;;;;;;4.40;77.60;;;;;;5038857;28;93023;-39
2022/12/01 09:43:58;;;;;;;;;;;4.40;77.30;;;;;;5040602;28;91359;-39
2022/12/01 09:46:27;;;;;;;;;;;4.40;77.60;;;;;;5039852;27;92172;-39
2022/12/01 09:48:56;;;;;;;;;;;4.40;77.30;;;;;;5039643;28;92276;-39
2022/12/01 09:51:23;;;;;;;;;;;4.40;77.50;;;;;;5039500;28;93521;-39
2022/12/01 09:53:50;;;;;;;;;;;4.40;77.40;;;;;;5042577;27;93358;-39
2022/12/01 09:56:22;;;;;;;;;;;4.40;77.50;;;;;;5039823;28;92122;-39
2022/12/01 09:58:52;;;;;;;;;;;4.50;77.50;;;;;;5040182;28;92470;-39
2022/12/01 10:01:19;;;;;;;;;;;4.40;77.50;;;;;;5039425;28;94324;-39
2022/12/01 10:03:53;;;;;;;;;;;4.40;77.50;;;;;;5039995;28;92190;-39
2022/12/01 10:06:39;;;;;;;;;;;4.40;77.70;;;;;;5039931;27;92093;-39
2022/12/01 10:09:12;;;;;;;;;;;4.40;77.50;;;;;;5038974;28;92325;-39
2022/12/01 10:11:39;;;;;;;;;;;4.40;77.50;;;;;;5039904;28;91989;-39
2022/12/01 10:14:07;;;;;;;;;;;4.40;77.40;;;;;;5039856;27;92436;-39
2022/12/01 10:16:41;;;;;;;;;;;4.40;77.50;;;;;;5041727;28;94255;-40
2022/12/01 10:19:12;;;;;;;;;;;4.40;77.50;;;;;;5039440;28;93784;-39
2022/12/01 10:21:41;;;;;;;;;;;4.40;77.50;;;;;;5038954;28;93207;-39
2022/12/01 10:24:06;;;;;;;;;;;4.40;77.70;;;;;;5039724;28;92140;-39
2022/12/01 10:26:53;;;;;;;;;;;4.40;77.50;;;;;;5039881;28;92406;-39
2022/12/01 10:29:25;;;;;;;;;;;4.40;77.50;;;;;;5039166;28;93120;-39
2022/12/01 10:31:51;;;;;;;;;;;4.40;77.40;;;;;;5039280;28;91934;-39
2022/12/01 10:34:22;;;;;;;;;;;4.40;77.50;;;;;;5040156;27;91502;-39
2022/12/01 10:36:47;;;;;;;;;;;4.50;77.40;;;;;;5038674;28;93969;-39
2022/12/01 10:39:16;;;;;;;;;;;4.40;77.50;;;;;;5042635;28;92131;-39
2022/12/01 10:41:41;;;;;;;;;;;4.40;77.50;;;;;;5038205;28;93174;-39
2022/12/01 10:44:08;;;;;;;;;;;4.50;77.50;;;;;;5039154;28;92333;-39
2022/12/01 10:46:43;;;;;;;;;;;4.50;77.50;;;;;;5039431;28;92443;-39
2022/12/01 10:49:10;;;;;;;;;;;4.50;77.60;;;;;;5038638;28;93118;-39
2022/12/01 10:51:52;;;;;;;;;;;4.50;77.50;;;;;;5038698;28;92175;-39
2022/12/01 10:54:18;;;;;;;;;;;4.40;77.40;;;;;;5039524;27;91995;-39
2022/12/01 10:56:46;;;;;;;;;;;4.40;77.60;;;;;;5038324;28;94346;-39
2022/12/01 10:59:31;;;;;;;;;;;4.50;77.50;;;;;;5039526;28;91388;-39
2022/12/01 11:01:58;;;;;;;;;;;4.50;77.60;;;;;;5041735;27;92365;-39
2022/12/01 11:04:23;;;;;;;;;;;4.40;77.60;;;;;;5039084;28;92131;-39
2022/12/01 11:06:49;;;;;;;;;;;4.40;77.50;;;;;;5038596;27;92936;-39
2022/12/01 11:09:19;;;;;;;;;;;4.40;77.40;;;;;;5038238;28;94237;-40
2022/12/01 11:11:45;;;;;;;;;;;4.50;77.70;;;;;;5039013;28;92138;-39
2022/12/01 11:14:18;;;;;;;;;;;4.50;77.70;;;;;;5038972;28;92905;-39
2022/12/01 11:16:44;;;;;;;;;;;4.40;77.50;;;;;;5038400;28;93068;-39
2022/12/01 11:19:18;;;;;;;;;;;4.50;77.60;;;;;;5038786;28;92149;-39
2022/12/01 11:21:46;;;;;;;;;;;4.40;77.50;;;;;;5038783;27;92616;-39
2022/12/01 11:24:35;;;;;;;;;;;4.40;77.60;;;;;;5041964;28;92392;-39
2022/12/01 11:27:01;;;;;;;;;;;4.40;77.70;;;;;;5018645;27;92176;-39
2022/12/01 11:29:29;;;;;;;;;;;4.50;77.50;;;;;;5038060;28;94486;-39
2022/12/01 11:31:55;;;;;;;;;;;4.40;77.40;;;;;;5037849;28;93020;-39
2022/12/01 11:34:21;;;;;;;;;;;4.50;77.70;;;;;;5038873;27;93555;-39
2022/12/01 11:36:50;;;;;;;;;;;4.40;77.50;;;;;;5037964;28;93053;-39
2022/12/01 11:39:27;;;;;;;;;;;4.50;77.50;;;;;;5038512;28;92132;-39
2022/12/01 11:41:56;;;;;;;;;;;4.40;77.40;;;;;;5038771;27;92294;-39
2022/12/01 11:44:22;;;;;;;;;;;4.50;78.10;;;;;;5037951;28;93037;-39
2022/12/01 11:46:48;;;;;;;;;;;4.40;77.60;;;;;;5041938;28;92123;-39
2022/12/01 11:49:18;;;;;;;;;;;4.40;77.60;;;;;;5038514;28;92610;-39
2022/12/01 11:51:43;;;;;;;;;;;4.40;77.70;;;;;;5038654;28;92534;-39
2022/12/01 11:54:14;;;;;;;;;;;4.40;77.60;;;;;;5038652;27;92219;-39
2022/12/01 11:56:40;;;;;;;;;;;4.40;77.50;;;;;;5037325;28;94029;-39
2022/12/01 11:59:10;;;;;;;;;;;4.40;77.60;;;;;;5038482;28;92614;-39
2022/12/01 12:01:54;;;;;;;;;;;4.40;77.50;;;;;;5038204;27;92428;-39
2022/12/01 12:04:38;;;;;;;;;;;4.40;77.50;;;;;;5040621;27;93269;-39
2022/12/01 12:07:12;;;;;;;;;;;4.50;77.60;;;;;;5044954;28;92153;-39
2022/12/01 12:09:53;;;;;;;;;;;4.40;77.60;;;;;;5041062;28;94245;-39
2022/12/01 12:12:37;;;;;;;;;;;4.40;77.60;;;;;;5041542;28;92129;-39
2022/12/01 12:15:05;;;;;;;;;;;4.40;77.60;;;;;;5042374;27;92268;-39
2022/12/01 12:17:57;;;;;;;;;;;4.40;77.60;;;;;;5041148;28;93342;-39
2022/12/01 12:20:39;;;;;;;;;;;4.50;77.50;;;;;;5039217;28;91940;-39
2022/12/01 12:23:08;;;;;;;;;;;4.50;77.40;;;;;;5040894;27;93894;-39
2022/12/01 12:25:46;;;;;;;;;;;4.50;77.70;;;;;;5040827;28;94555;-39
2022/12/01 12:28:18;;;;;;;;;;;4.50;77.50;;;;;;5041628;28;92153;-39
2022/12/01 12:30:53;;;;;;;;;;;4.50;77.50;;;;;;5044202;27;92611;-39
2022/12/01 12:33:19;;;;;;;;;;;4.50;77.50;;;;;;5041774;28;91916;-39
2022/12/01 12:35:57;;;;;;;;;;;4.50;77.50;;;;;;5041414;27;92309;-39
2022/12/01 12:38:35;;;;;;;;;;;4.50;77.70;;;;;;5040815;28;93351;-39
2022/12/01 12:41:09;;;;;;;;;;;4.50;77.50;;;;;;5041948;28;91365;-39
2022/12/01 12:43:35;;;;;;;;;;;4.50;77.60;;;;;;5041096;28;92194;-39
2022/12/01 12:46:00;;;;;;;;;;;4.40;77.70;;;;;;5039921;28;94639;-39
2022/12/01 12:48:46;;;;;;;;;;;4.50;77.70;;;;;;5040606;28;92901;-39
2022/12/01 12:51:18;;;;;;;;;;;4.50;77.40;;;;;;5032766;28;95233;-39
2022/12/01 12:53:50;;;;;;;;;;;4.40;77.50;;;;;;5043752;28;93183;-39
2022/12/01 12:56:17;;;;;;;;;;;4.50;77.60;;;;;;5040798;28;92443;-39
2022/12/01 12:58:55;;;;;;;;;;;4.50;77.60;;;;;;5040605;28;93117;-39
2022/12/01 13:01:33;;;;;;;;;;;4.40;77.60;;;;;;5040663;28;92095;-39
2022/12/01 13:04:13;;;;;;;;;;;4.40;77.50;;;;;;5041129;27;92411;-39
2022/12/01 13:07:02;;;;;;;;;;;4.40;77.70;;;;;;5041266;28;92508;-39
2022/12/01 13:09:32;;;;;;;;;;;4.40;77.60;;;;;;5034643;28;92260;-39
2022/12/01 13:12:01;;;;;;;;;;;4.40;77.70;;;;;;5041180;27;92466;-39
2022/12/01 13:14:39;;;;;;;;;;;4.50;77.70;;;;;;5038993;27;94084;-39
2022/12/01 13:17:19;;;;;;;;;;;4.50;77.60;;;;;;5043797;28;92086;-39
2022/12/01 13:19:45;;;;;;;;;;;4.50;77.30;;;;;;5040059;28;92385;-39
2022/12/01 13:22:12;;;;;;;;;;;4.50;77.20;;;;;;5040684;28;92139;-39
2022/12/01 13:24:37;;;;;;;;;;;4.40;77.50;;;;;;5040846;28;92551;-39
2022/12/01 13:27:09;;;;;;;;;;;4.40;77.50;;;;;;5040040;28;93162;-39
2022/12/01 13:29:36;;;;;;;;;;;4.50;77.70;;;;;;5040515;28;92173;-39
2022/12/01 13:32:03;;;;;;;;;;;4.50;77.60;;;;;;5041056;27;92498;-39
2022/12/01 13:34:41;;;;;;;;;;;4.50;77.50;;;;;;5039867;28;93217;-39
2022/12/01 13:37:07;;;;;;;;;;;4.50;77.60;;;;;;5040546;28;92120;-39
2022/12/01 13:39:35;;;;;;;;;;;4.50;77.20;;;;;;5042510;28;92960;-39
2022/12/01 13:42:00;;;;;;;;;;;4.50;77.50;;;;;;5039941;28;92203;-39
2022/12/01 13:44:26;;;;;;;;;;;4.50;77.40;;;;;;5039691;28;92369;-39
2022/12/01 13:47:01;;;;;;;;;;;4.50;77.30;;;;;;5040190;28;93160;-39
2022/12/01 13:49:41;;;;;;;;;;;4.50;77.30;;;;;;5040101;28;92140;-39
2022/12/01 13:52:21;;;;;;;;;;;4.50;77.40;;;;;;5040022;27;92219;-39
2022/12/01 13:55:22;;;;;;;;;;;4.50;77.30;;;;;;5039597;28;92006;-39
2022/12/01 13:57:57;;;;;;;;;;;4.50;77.60;;;;;;4997176;28;91470;-39
2022/12/01 14:00:27;;;;;;;;;;;4.40;77.50;;;;;;5033509;28;92193;-39
2022/12/01 14:03:13;;;;;;;;;;;4.40;77.70;;;;;;5042259;28;94334;-39
2022/12/01 14:05:38;;;;;;;;;;;4.40;77.60;;;;;;5030916;28;93418;-39
2022/12/01 14:08:12;;;;;;;;;;;4.40;77.60;;;;;;5039435;28;93155;-39
2022/12/01 14:10:38;;;;;;;;;;;4.40;77.60;;;;;;5039942;28;92012;-39
2022/12/01 14:13:05;;;;;;;;;;;4.50;77.70;;;;;;5039981;27;92353;-39
2022/12/01 14:15:30;;;;;;;;;;;4.40;77.50;;;;;;5038653;28;93859;-39
2022/12/01 14:18:01;;;;;;;;;;;4.50;77.40;;;;;;5039794;28;92171;-39
2022/12/01 14:20:28;;;;;;;;;;;4.50;77.30;;;;;;5039471;28;92122;-39
2022/12/01 14:23:12;;;;;;;;;;;4.50;77.40;;;;;;5042915;28;92380;-39
2022/12/01 14:25:38;;;;;;;;;;;4.50;77.30;;;;;;5038940;27;93465;-39
2022/12/01 14:28:11;;;;;;;;;;;4.50;77.40;;;;;;5038913;28;93152;-39
2022/12/01 14:30:39;;;;;;;;;;;4.50;77.40;;;;;;5039124;28;93004;-39
2022/12/01 14:33:23;;;;;;;;;;;4.50;77.50;;;;;;5039502;28;93331;-39
2022/12/01 14:35:49;;;;;;;;;;;4.40;77.60;;;;;;5039154;27;93151;-39
2022/12/01 14:38:14;;;;;;;;;;;4.40;77.60;;;;;;5039640;28;92125;-39
2022/12/01 14:40:40;;;;;;;;;;;4.40;77.50;;;;;;5039411;27;92499;-39
2022/12/01 14:46:01;;;;;;;;;;;4.40;77.20;;;;;;5041338;28;92073;-39
2022/12/01 14:48:33;;;;;;;;;;;4.40;77.20;;;;;;5039218;28;91371;-39